<?xml version="1.0" encoding="UTF-8" standalone="no" ?>
<gpx xmlns="http://www.topografix.com/GPX/1/1" xmlns:xsi="http://www.w3.org/2001/XMLSchema-instance" xsi:schemaLocation="http://www.topografix.com/GPX/1/1 http://www.topografix.com/GPX/1/1/gpx.xsd" version="1.1" creator="VisuGPX - https://www.visugpx.com">
  <metadata>
    <name>Grand tour nord</name>
    <desc><![CDATA[première fois de l'année par le camping, la route de Largitzen, et le retour par la piste cyclable]]></desc>
  </metadata>
  <wpt lat="47.54145" lon="7.17056">
    <ele>367</ele>
    <name><![CDATA[0000029]]></name>
  </wpt>
  <wpt lat="47.54134" lon="7.1706">
    <ele>367</ele>
    <name><![CDATA[0000030]]></name>
  </wpt>
  <trk>
    <name><![CDATA[2018-03-22 12:26]]></name>
    <trkseg>
      <trkpt lat="47.54145" lon="7.17056">
        <ele>367</ele>
        <time>2018-03-22T11:26:16Z</time>
      </trkpt>
      <trkpt lat="47.54125" lon="7.17055">
        <ele>367</ele>
        <time>2018-03-22T11:26:40Z</time>
      </trkpt>
      <trkpt lat="47.54105" lon="7.17062">
        <ele>367</ele>
        <time>2018-03-22T11:26:52Z</time>
      </trkpt>
      <trkpt lat="47.54093" lon="7.17083">
        <ele>367</ele>
        <time>2018-03-22T11:27:02Z</time>
      </trkpt>
      <trkpt lat="47.54078" lon="7.171">
        <ele>368</ele>
        <time>2018-03-22T11:27:14Z</time>
      </trkpt>
      <trkpt lat="47.54065" lon="7.17122">
        <ele>369</ele>
        <time>2018-03-22T11:27:26Z</time>
      </trkpt>
      <trkpt lat="47.54057" lon="7.17149">
        <ele>370</ele>
        <time>2018-03-22T11:27:40Z</time>
      </trkpt>
      <trkpt lat="47.54046" lon="7.17175">
        <ele>370</ele>
        <time>2018-03-22T11:27:52Z</time>
      </trkpt>
      <trkpt lat="47.54034" lon="7.17198">
        <ele>370</ele>
        <time>2018-03-22T11:28:04Z</time>
      </trkpt>
      <trkpt lat="47.54021" lon="7.17221">
        <ele>370</ele>
        <time>2018-03-22T11:28:16Z</time>
      </trkpt>
      <trkpt lat="47.54006" lon="7.17239">
        <ele>370</ele>
        <time>2018-03-22T11:28:28Z</time>
      </trkpt>
      <trkpt lat="47.53986" lon="7.17242">
        <ele>372</ele>
        <time>2018-03-22T11:28:40Z</time>
      </trkpt>
      <trkpt lat="47.53967" lon="7.17229">
        <ele>373</ele>
        <time>2018-03-22T11:28:52Z</time>
      </trkpt>
      <trkpt lat="47.53949" lon="7.1722">
        <ele>373</ele>
        <time>2018-03-22T11:29:04Z</time>
      </trkpt>
      <trkpt lat="47.53933" lon="7.17235">
        <ele>373</ele>
        <time>2018-03-22T11:29:16Z</time>
      </trkpt>
      <trkpt lat="47.53922" lon="7.17261">
        <ele>372</ele>
        <time>2018-03-22T11:29:28Z</time>
      </trkpt>
      <trkpt lat="47.53909" lon="7.17284">
        <ele>374</ele>
        <time>2018-03-22T11:29:40Z</time>
      </trkpt>
      <trkpt lat="47.53897" lon="7.17305">
        <ele>374</ele>
        <time>2018-03-22T11:29:50Z</time>
      </trkpt>
      <trkpt lat="47.53884" lon="7.17328">
        <ele>374</ele>
        <time>2018-03-22T11:30:02Z</time>
      </trkpt>
      <trkpt lat="47.53875" lon="7.17356">
        <ele>374</ele>
        <time>2018-03-22T11:30:14Z</time>
      </trkpt>
      <trkpt lat="47.53869" lon="7.17383">
        <ele>374</ele>
        <time>2018-03-22T11:30:26Z</time>
      </trkpt>
      <trkpt lat="47.53884" lon="7.17398">
        <ele>373</ele>
        <time>2018-03-22T11:30:38Z</time>
      </trkpt>
      <trkpt lat="47.53895" lon="7.17422">
        <ele>373</ele>
        <time>2018-03-22T11:30:50Z</time>
      </trkpt>
      <trkpt lat="47.53907" lon="7.17449">
        <ele>373</ele>
        <time>2018-03-22T11:31:02Z</time>
      </trkpt>
      <trkpt lat="47.53916" lon="7.17475">
        <ele>373</ele>
        <time>2018-03-22T11:31:13Z</time>
      </trkpt>
      <trkpt lat="47.53926" lon="7.17497">
        <ele>372</ele>
        <time>2018-03-22T11:31:23Z</time>
      </trkpt>
      <trkpt lat="47.5394" lon="7.1752">
        <ele>372</ele>
        <time>2018-03-22T11:31:35Z</time>
      </trkpt>
      <trkpt lat="47.53955" lon="7.17542">
        <ele>372</ele>
        <time>2018-03-22T11:31:47Z</time>
      </trkpt>
      <trkpt lat="47.5397" lon="7.17563">
        <ele>372</ele>
        <time>2018-03-22T11:31:59Z</time>
      </trkpt>
      <trkpt lat="47.53984" lon="7.17584">
        <ele>372</ele>
        <time>2018-03-22T11:32:11Z</time>
      </trkpt>
      <trkpt lat="47.53998" lon="7.17605">
        <ele>372</ele>
        <time>2018-03-22T11:32:23Z</time>
      </trkpt>
      <trkpt lat="47.54015" lon="7.17624">
        <ele>373</ele>
        <time>2018-03-22T11:32:35Z</time>
      </trkpt>
      <trkpt lat="47.54028" lon="7.17644">
        <ele>374</ele>
        <time>2018-03-22T11:32:45Z</time>
      </trkpt>
      <trkpt lat="47.54043" lon="7.17665">
        <ele>374</ele>
        <time>2018-03-22T11:32:57Z</time>
      </trkpt>
      <trkpt lat="47.54056" lon="7.17689">
        <ele>377</ele>
        <time>2018-03-22T11:33:09Z</time>
      </trkpt>
      <trkpt lat="47.54071" lon="7.17707">
        <ele>378</ele>
        <time>2018-03-22T11:33:21Z</time>
      </trkpt>
      <trkpt lat="47.54083" lon="7.1773">
        <ele>379</ele>
        <time>2018-03-22T11:33:33Z</time>
      </trkpt>
      <trkpt lat="47.54069" lon="7.17753">
        <ele>382</ele>
        <time>2018-03-22T11:33:43Z</time>
      </trkpt>
      <trkpt lat="47.54057" lon="7.17774">
        <ele>382</ele>
        <time>2018-03-22T11:33:55Z</time>
      </trkpt>
      <trkpt lat="47.54046" lon="7.17799">
        <ele>382</ele>
        <time>2018-03-22T11:34:07Z</time>
      </trkpt>
      <trkpt lat="47.54038" lon="7.17828">
        <ele>382</ele>
        <time>2018-03-22T11:34:19Z</time>
      </trkpt>
      <trkpt lat="47.54029" lon="7.17855">
        <ele>387</ele>
        <time>2018-03-22T11:34:29Z</time>
      </trkpt>
      <trkpt lat="47.5402" lon="7.17883">
        <ele>388</ele>
        <time>2018-03-22T11:34:41Z</time>
      </trkpt>
      <trkpt lat="47.54013" lon="7.17911">
        <ele>388</ele>
        <time>2018-03-22T11:34:53Z</time>
      </trkpt>
      <trkpt lat="47.5401" lon="7.17943">
        <ele>393</ele>
        <time>2018-03-22T11:35:06Z</time>
      </trkpt>
      <trkpt lat="47.54019" lon="7.17968">
        <ele>394</ele>
        <time>2018-03-22T11:35:18Z</time>
      </trkpt>
      <trkpt lat="47.54028" lon="7.17993">
        <ele>395</ele>
        <time>2018-03-22T11:35:30Z</time>
      </trkpt>
      <trkpt lat="47.54036" lon="7.18018">
        <ele>398</ele>
        <time>2018-03-22T11:35:40Z</time>
      </trkpt>
      <trkpt lat="47.54049" lon="7.18042">
        <ele>399</ele>
        <time>2018-03-22T11:35:52Z</time>
      </trkpt>
      <trkpt lat="47.54063" lon="7.18062">
        <ele>400</ele>
        <time>2018-03-22T11:36:04Z</time>
      </trkpt>
      <trkpt lat="47.54078" lon="7.18082">
        <ele>401</ele>
        <time>2018-03-22T11:36:16Z</time>
      </trkpt>
      <trkpt lat="47.54092" lon="7.18105">
        <ele>403</ele>
        <time>2018-03-22T11:36:28Z</time>
      </trkpt>
      <trkpt lat="47.54107" lon="7.18121">
        <ele>404</ele>
        <time>2018-03-22T11:36:40Z</time>
      </trkpt>
      <trkpt lat="47.54122" lon="7.18137">
        <ele>405</ele>
        <time>2018-03-22T11:36:52Z</time>
      </trkpt>
      <trkpt lat="47.54138" lon="7.18152">
        <ele>406</ele>
        <time>2018-03-22T11:37:02Z</time>
      </trkpt>
      <trkpt lat="47.54157" lon="7.18165">
        <ele>407</ele>
        <time>2018-03-22T11:37:14Z</time>
      </trkpt>
      <trkpt lat="47.54172" lon="7.18182">
        <ele>408</ele>
        <time>2018-03-22T11:37:24Z</time>
      </trkpt>
      <trkpt lat="47.54186" lon="7.18201">
        <ele>408</ele>
        <time>2018-03-22T11:37:36Z</time>
      </trkpt>
      <trkpt lat="47.54197" lon="7.18229">
        <ele>408</ele>
        <time>2018-03-22T11:37:50Z</time>
      </trkpt>
      <trkpt lat="47.54205" lon="7.18254">
        <ele>407</ele>
        <time>2018-03-22T11:38:00Z</time>
      </trkpt>
      <trkpt lat="47.54218" lon="7.18272">
        <ele>407</ele>
        <time>2018-03-22T11:38:10Z</time>
      </trkpt>
      <trkpt lat="47.54226" lon="7.18296">
        <ele>406</ele>
        <time>2018-03-22T11:38:20Z</time>
      </trkpt>
      <trkpt lat="47.54236" lon="7.18321">
        <ele>405</ele>
        <time>2018-03-22T11:38:30Z</time>
      </trkpt>
      <trkpt lat="47.5424" lon="7.18351">
        <ele>405</ele>
        <time>2018-03-22T11:38:42Z</time>
      </trkpt>
      <trkpt lat="47.54248" lon="7.18375">
        <ele>405</ele>
        <time>2018-03-22T11:38:52Z</time>
      </trkpt>
      <trkpt lat="47.54251" lon="7.18402">
        <ele>404</ele>
        <time>2018-03-22T11:39:02Z</time>
      </trkpt>
      <trkpt lat="47.54248" lon="7.18428">
        <ele>405</ele>
        <time>2018-03-22T11:39:12Z</time>
      </trkpt>
      <trkpt lat="47.54244" lon="7.18458">
        <ele>406</ele>
        <time>2018-03-22T11:39:22Z</time>
      </trkpt>
      <trkpt lat="47.54242" lon="7.18485">
        <ele>406</ele>
        <time>2018-03-22T11:39:32Z</time>
      </trkpt>
      <trkpt lat="47.54253" lon="7.18507">
        <ele>405</ele>
        <time>2018-03-22T11:39:42Z</time>
      </trkpt>
      <trkpt lat="47.54266" lon="7.18526">
        <ele>405</ele>
        <time>2018-03-22T11:39:52Z</time>
      </trkpt>
      <trkpt lat="47.54281" lon="7.18549">
        <ele>406</ele>
        <time>2018-03-22T11:40:04Z</time>
      </trkpt>
      <trkpt lat="47.54294" lon="7.18573">
        <ele>406</ele>
        <time>2018-03-22T11:40:16Z</time>
      </trkpt>
      <trkpt lat="47.54308" lon="7.18597">
        <ele>407</ele>
        <time>2018-03-22T11:40:28Z</time>
      </trkpt>
      <trkpt lat="47.54322" lon="7.1862">
        <ele>407</ele>
        <time>2018-03-22T11:40:40Z</time>
      </trkpt>
      <trkpt lat="47.54333" lon="7.18643">
        <ele>408</ele>
        <time>2018-03-22T11:40:50Z</time>
      </trkpt>
      <trkpt lat="47.54342" lon="7.18665">
        <ele>408</ele>
        <time>2018-03-22T11:41:00Z</time>
      </trkpt>
      <trkpt lat="47.54357" lon="7.18687">
        <ele>409</ele>
        <time>2018-03-22T11:41:12Z</time>
      </trkpt>
      <trkpt lat="47.54372" lon="7.1871">
        <ele>409</ele>
        <time>2018-03-22T11:41:24Z</time>
      </trkpt>
      <trkpt lat="47.54387" lon="7.18731">
        <ele>409</ele>
        <time>2018-03-22T11:41:36Z</time>
      </trkpt>
      <trkpt lat="47.544" lon="7.1875">
        <ele>410</ele>
        <time>2018-03-22T11:41:46Z</time>
      </trkpt>
      <trkpt lat="47.54413" lon="7.1877">
        <ele>410</ele>
        <time>2018-03-22T11:41:56Z</time>
      </trkpt>
      <trkpt lat="47.54427" lon="7.18793">
        <ele>411</ele>
        <time>2018-03-22T11:42:08Z</time>
      </trkpt>
      <trkpt lat="47.54442" lon="7.18816">
        <ele>411</ele>
        <time>2018-03-22T11:42:21Z</time>
      </trkpt>
      <trkpt lat="47.54457" lon="7.18837">
        <ele>412</ele>
        <time>2018-03-22T11:42:33Z</time>
      </trkpt>
      <trkpt lat="47.5447" lon="7.18859">
        <ele>412</ele>
        <time>2018-03-22T11:42:45Z</time>
      </trkpt>
      <trkpt lat="47.54485" lon="7.18881">
        <ele>412</ele>
        <time>2018-03-22T11:42:57Z</time>
      </trkpt>
      <trkpt lat="47.545" lon="7.18903">
        <ele>412</ele>
        <time>2018-03-22T11:43:09Z</time>
      </trkpt>
      <trkpt lat="47.54514" lon="7.18925">
        <ele>412</ele>
        <time>2018-03-22T11:43:21Z</time>
      </trkpt>
      <trkpt lat="47.54529" lon="7.18938">
        <ele>411</ele>
        <time>2018-03-22T11:43:31Z</time>
      </trkpt>
      <trkpt lat="47.54546" lon="7.18925">
        <ele>411</ele>
        <time>2018-03-22T11:43:43Z</time>
      </trkpt>
      <trkpt lat="47.54561" lon="7.18904">
        <ele>412</ele>
        <time>2018-03-22T11:43:55Z</time>
      </trkpt>
      <trkpt lat="47.54575" lon="7.18887">
        <ele>412</ele>
        <time>2018-03-22T11:44:05Z</time>
      </trkpt>
      <trkpt lat="47.5459" lon="7.18867">
        <ele>411</ele>
        <time>2018-03-22T11:44:17Z</time>
      </trkpt>
      <trkpt lat="47.54604" lon="7.18848">
        <ele>411</ele>
        <time>2018-03-22T11:44:29Z</time>
      </trkpt>
      <trkpt lat="47.54619" lon="7.18829">
        <ele>410</ele>
        <time>2018-03-22T11:44:41Z</time>
      </trkpt>
      <trkpt lat="47.54633" lon="7.18809">
        <ele>410</ele>
        <time>2018-03-22T11:44:51Z</time>
      </trkpt>
      <trkpt lat="47.54649" lon="7.1879">
        <ele>409</ele>
        <time>2018-03-22T11:45:03Z</time>
      </trkpt>
      <trkpt lat="47.54663" lon="7.18773">
        <ele>409</ele>
        <time>2018-03-22T11:45:13Z</time>
      </trkpt>
      <trkpt lat="47.5468" lon="7.18753">
        <ele>408</ele>
        <time>2018-03-22T11:45:25Z</time>
      </trkpt>
      <trkpt lat="47.54694" lon="7.18736">
        <ele>409</ele>
        <time>2018-03-22T11:45:35Z</time>
      </trkpt>
      <trkpt lat="47.5471" lon="7.18715">
        <ele>408</ele>
        <time>2018-03-22T11:45:47Z</time>
      </trkpt>
      <trkpt lat="47.54727" lon="7.18702">
        <ele>408</ele>
        <time>2018-03-22T11:45:57Z</time>
      </trkpt>
      <trkpt lat="47.54746" lon="7.18702">
        <ele>408</ele>
        <time>2018-03-22T11:46:07Z</time>
      </trkpt>
      <trkpt lat="47.54767" lon="7.18707">
        <ele>409</ele>
        <time>2018-03-22T11:46:19Z</time>
      </trkpt>
      <trkpt lat="47.54782" lon="7.18721">
        <ele>409</ele>
        <time>2018-03-22T11:46:29Z</time>
      </trkpt>
      <trkpt lat="47.54798" lon="7.18741">
        <ele>409</ele>
        <time>2018-03-22T11:46:41Z</time>
      </trkpt>
      <trkpt lat="47.54814" lon="7.18761">
        <ele>409</ele>
        <time>2018-03-22T11:46:55Z</time>
      </trkpt>
      <trkpt lat="47.54832" lon="7.18774">
        <ele>409</ele>
        <time>2018-03-22T11:47:07Z</time>
      </trkpt>
      <trkpt lat="47.54846" lon="7.18791">
        <ele>412</ele>
        <time>2018-03-22T11:47:19Z</time>
      </trkpt>
      <trkpt lat="47.54861" lon="7.18808">
        <ele>412</ele>
        <time>2018-03-22T11:47:31Z</time>
      </trkpt>
      <trkpt lat="47.54878" lon="7.18823">
        <ele>412</ele>
        <time>2018-03-22T11:47:43Z</time>
      </trkpt>
      <trkpt lat="47.54895" lon="7.18839">
        <ele>410</ele>
        <time>2018-03-22T11:47:55Z</time>
      </trkpt>
      <trkpt lat="47.54912" lon="7.18856">
        <ele>410</ele>
        <time>2018-03-22T11:48:13Z</time>
      </trkpt>
      <trkpt lat="47.5493" lon="7.18874">
        <ele>410</ele>
        <time>2018-03-22T11:48:27Z</time>
      </trkpt>
      <trkpt lat="47.54947" lon="7.18883">
        <ele>410</ele>
        <time>2018-03-22T11:48:39Z</time>
      </trkpt>
      <trkpt lat="47.54967" lon="7.18875">
        <ele>411</ele>
        <time>2018-03-22T11:48:53Z</time>
      </trkpt>
      <trkpt lat="47.5498" lon="7.18853">
        <ele>412</ele>
        <time>2018-03-22T11:49:05Z</time>
      </trkpt>
      <trkpt lat="47.54991" lon="7.18829">
        <ele>415</ele>
        <time>2018-03-22T11:49:17Z</time>
      </trkpt>
      <trkpt lat="47.55004" lon="7.18805">
        <ele>418</ele>
        <time>2018-03-22T11:49:33Z</time>
      </trkpt>
      <trkpt lat="47.55014" lon="7.18783">
        <ele>419</ele>
        <time>2018-03-22T11:49:47Z</time>
      </trkpt>
      <trkpt lat="47.55025" lon="7.18762">
        <ele>420</ele>
        <time>2018-03-22T11:49:59Z</time>
      </trkpt>
      <trkpt lat="47.55035" lon="7.18739">
        <ele>422</ele>
        <time>2018-03-22T11:50:11Z</time>
      </trkpt>
      <trkpt lat="47.55045" lon="7.18713">
        <ele>423</ele>
        <time>2018-03-22T11:50:23Z</time>
      </trkpt>
      <trkpt lat="47.55053" lon="7.18688">
        <ele>423</ele>
        <time>2018-03-22T11:50:35Z</time>
      </trkpt>
      <trkpt lat="47.55063" lon="7.18665">
        <ele>424</ele>
        <time>2018-03-22T11:50:47Z</time>
      </trkpt>
      <trkpt lat="47.55074" lon="7.18641">
        <ele>424</ele>
        <time>2018-03-22T11:50:59Z</time>
      </trkpt>
      <trkpt lat="47.55085" lon="7.18615">
        <ele>424</ele>
        <time>2018-03-22T11:51:11Z</time>
      </trkpt>
      <trkpt lat="47.55096" lon="7.18593">
        <ele>424</ele>
        <time>2018-03-22T11:51:23Z</time>
      </trkpt>
      <trkpt lat="47.55107" lon="7.18568">
        <ele>424</ele>
        <time>2018-03-22T11:51:35Z</time>
      </trkpt>
      <trkpt lat="47.55119" lon="7.18542">
        <ele>423</ele>
        <time>2018-03-22T11:51:47Z</time>
      </trkpt>
      <trkpt lat="47.55128" lon="7.18519">
        <ele>423</ele>
        <time>2018-03-22T11:51:57Z</time>
      </trkpt>
      <trkpt lat="47.5514" lon="7.18495">
        <ele>423</ele>
        <time>2018-03-22T11:52:09Z</time>
      </trkpt>
      <trkpt lat="47.55151" lon="7.18474">
        <ele>422</ele>
        <time>2018-03-22T11:52:21Z</time>
      </trkpt>
      <trkpt lat="47.55159" lon="7.18448">
        <ele>422</ele>
        <time>2018-03-22T11:52:33Z</time>
      </trkpt>
      <trkpt lat="47.55168" lon="7.18425">
        <ele>421</ele>
        <time>2018-03-22T11:52:43Z</time>
      </trkpt>
      <trkpt lat="47.5518" lon="7.18399">
        <ele>420</ele>
        <time>2018-03-22T11:52:55Z</time>
      </trkpt>
      <trkpt lat="47.55192" lon="7.18372">
        <ele>420</ele>
        <time>2018-03-22T11:53:07Z</time>
      </trkpt>
      <trkpt lat="47.55204" lon="7.1835">
        <ele>420</ele>
        <time>2018-03-22T11:53:19Z</time>
      </trkpt>
      <trkpt lat="47.55215" lon="7.18325">
        <ele>419</ele>
        <time>2018-03-22T11:53:31Z</time>
      </trkpt>
      <trkpt lat="47.55226" lon="7.18299">
        <ele>418</ele>
        <time>2018-03-22T11:53:43Z</time>
      </trkpt>
      <trkpt lat="47.55236" lon="7.18273">
        <ele>418</ele>
        <time>2018-03-22T11:53:55Z</time>
      </trkpt>
      <trkpt lat="47.55246" lon="7.1825">
        <ele>416</ele>
        <time>2018-03-22T11:54:07Z</time>
      </trkpt>
      <trkpt lat="47.55257" lon="7.18223">
        <ele>415</ele>
        <time>2018-03-22T11:54:19Z</time>
      </trkpt>
      <trkpt lat="47.55268" lon="7.18197">
        <ele>414</ele>
        <time>2018-03-22T11:54:31Z</time>
      </trkpt>
      <trkpt lat="47.55278" lon="7.18174">
        <ele>414</ele>
        <time>2018-03-22T11:54:41Z</time>
      </trkpt>
      <trkpt lat="47.55289" lon="7.18149">
        <ele>414</ele>
        <time>2018-03-22T11:54:53Z</time>
      </trkpt>
      <trkpt lat="47.553" lon="7.18122">
        <ele>414</ele>
        <time>2018-03-22T11:55:07Z</time>
      </trkpt>
      <trkpt lat="47.55309" lon="7.18095">
        <ele>414</ele>
        <time>2018-03-22T11:55:19Z</time>
      </trkpt>
      <trkpt lat="47.55318" lon="7.18071">
        <ele>415</ele>
        <time>2018-03-22T11:55:31Z</time>
      </trkpt>
      <trkpt lat="47.55328" lon="7.18042">
        <ele>415</ele>
        <time>2018-03-22T11:55:43Z</time>
      </trkpt>
      <trkpt lat="47.55336" lon="7.18014">
        <ele>414</ele>
        <time>2018-03-22T11:55:57Z</time>
      </trkpt>
      <trkpt lat="47.55346" lon="7.17989">
        <ele>414</ele>
        <time>2018-03-22T11:56:09Z</time>
      </trkpt>
      <trkpt lat="47.55355" lon="7.17964">
        <ele>413</ele>
        <time>2018-03-22T11:56:21Z</time>
      </trkpt>
      <trkpt lat="47.55366" lon="7.17936">
        <ele>412</ele>
        <time>2018-03-22T11:56:33Z</time>
      </trkpt>
      <trkpt lat="47.55376" lon="7.1791">
        <ele>412</ele>
        <time>2018-03-22T11:56:45Z</time>
      </trkpt>
      <trkpt lat="47.55385" lon="7.17886">
        <ele>412</ele>
        <time>2018-03-22T11:56:57Z</time>
      </trkpt>
      <trkpt lat="47.55395" lon="7.17862">
        <ele>411</ele>
        <time>2018-03-22T11:57:07Z</time>
      </trkpt>
      <trkpt lat="47.55405" lon="7.17837">
        <ele>410</ele>
        <time>2018-03-22T11:57:19Z</time>
      </trkpt>
      <trkpt lat="47.55416" lon="7.1781">
        <ele>411</ele>
        <time>2018-03-22T11:57:31Z</time>
      </trkpt>
      <trkpt lat="47.55427" lon="7.17788">
        <ele>408</ele>
        <time>2018-03-22T11:57:41Z</time>
      </trkpt>
      <trkpt lat="47.55435" lon="7.17762">
        <ele>408</ele>
        <time>2018-03-22T11:57:53Z</time>
      </trkpt>
      <trkpt lat="47.55444" lon="7.17736">
        <ele>409</ele>
        <time>2018-03-22T11:58:05Z</time>
      </trkpt>
      <trkpt lat="47.55452" lon="7.17711">
        <ele>408</ele>
        <time>2018-03-22T11:58:17Z</time>
      </trkpt>
      <trkpt lat="47.55462" lon="7.17689">
        <ele>408</ele>
        <time>2018-03-22T11:58:27Z</time>
      </trkpt>
      <trkpt lat="47.55471" lon="7.17663">
        <ele>408</ele>
        <time>2018-03-22T11:58:39Z</time>
      </trkpt>
      <trkpt lat="47.5548" lon="7.17636">
        <ele>409</ele>
        <time>2018-03-22T11:58:51Z</time>
      </trkpt>
      <trkpt lat="47.55488" lon="7.17612">
        <ele>409</ele>
        <time>2018-03-22T11:59:01Z</time>
      </trkpt>
      <trkpt lat="47.55496" lon="7.17585">
        <ele>409</ele>
        <time>2018-03-22T11:59:13Z</time>
      </trkpt>
      <trkpt lat="47.55502" lon="7.17559">
        <ele>409</ele>
        <time>2018-03-22T11:59:23Z</time>
      </trkpt>
      <trkpt lat="47.55506" lon="7.17529">
        <ele>410</ele>
        <time>2018-03-22T11:59:35Z</time>
      </trkpt>
      <trkpt lat="47.5551" lon="7.17501">
        <ele>411</ele>
        <time>2018-03-22T11:59:47Z</time>
      </trkpt>
      <trkpt lat="47.55522" lon="7.17478">
        <ele>409</ele>
        <time>2018-03-22T12:00:01Z</time>
      </trkpt>
      <trkpt lat="47.55536" lon="7.1746">
        <ele>408</ele>
        <time>2018-03-22T12:00:13Z</time>
      </trkpt>
      <trkpt lat="47.55551" lon="7.17443">
        <ele>407</ele>
        <time>2018-03-22T12:00:23Z</time>
      </trkpt>
      <trkpt lat="47.55566" lon="7.17426">
        <ele>405</ele>
        <time>2018-03-22T12:00:33Z</time>
      </trkpt>
      <trkpt lat="47.55579" lon="7.17404">
        <ele>402</ele>
        <time>2018-03-22T12:00:45Z</time>
      </trkpt>
      <trkpt lat="47.55592" lon="7.17385">
        <ele>395</ele>
        <time>2018-03-22T12:00:55Z</time>
      </trkpt>
      <trkpt lat="47.5561" lon="7.17373">
        <ele>393</ele>
        <time>2018-03-22T12:01:07Z</time>
      </trkpt>
      <trkpt lat="47.5563" lon="7.17368">
        <ele>392</ele>
        <time>2018-03-22T12:01:17Z</time>
      </trkpt>
      <trkpt lat="47.55651" lon="7.1736">
        <ele>390</ele>
        <time>2018-03-22T12:01:27Z</time>
      </trkpt>
      <trkpt lat="47.55672" lon="7.17354">
        <ele>385</ele>
        <time>2018-03-22T12:01:39Z</time>
      </trkpt>
      <trkpt lat="47.55692" lon="7.17345">
        <ele>384</ele>
        <time>2018-03-22T12:01:51Z</time>
      </trkpt>
      <trkpt lat="47.5571" lon="7.17339">
        <ele>383</ele>
        <time>2018-03-22T12:02:01Z</time>
      </trkpt>
      <trkpt lat="47.55728" lon="7.17334">
        <ele>382</ele>
        <time>2018-03-22T12:02:11Z</time>
      </trkpt>
      <trkpt lat="47.55735" lon="7.17308">
        <ele>382</ele>
        <time>2018-03-22T12:02:25Z</time>
      </trkpt>
      <trkpt lat="47.55731" lon="7.17281">
        <ele>382</ele>
        <time>2018-03-22T12:02:35Z</time>
      </trkpt>
      <trkpt lat="47.55725" lon="7.17253">
        <ele>382</ele>
        <time>2018-03-22T12:02:47Z</time>
      </trkpt>
      <trkpt lat="47.55717" lon="7.17225">
        <ele>382</ele>
        <time>2018-03-22T12:02:59Z</time>
      </trkpt>
      <trkpt lat="47.55709" lon="7.17201">
        <ele>383</ele>
        <time>2018-03-22T12:03:09Z</time>
      </trkpt>
      <trkpt lat="47.55702" lon="7.17176">
        <ele>383</ele>
        <time>2018-03-22T12:03:19Z</time>
      </trkpt>
      <trkpt lat="47.55694" lon="7.17152">
        <ele>383</ele>
        <time>2018-03-22T12:03:29Z</time>
      </trkpt>
      <trkpt lat="47.55687" lon="7.17122">
        <ele>383</ele>
        <time>2018-03-22T12:03:41Z</time>
      </trkpt>
      <trkpt lat="47.55682" lon="7.17094">
        <ele>384</ele>
        <time>2018-03-22T12:03:53Z</time>
      </trkpt>
      <trkpt lat="47.55677" lon="7.17063">
        <ele>384</ele>
        <time>2018-03-22T12:04:05Z</time>
      </trkpt>
      <trkpt lat="47.55673" lon="7.17031">
        <ele>384</ele>
        <time>2018-03-22T12:04:17Z</time>
      </trkpt>
      <trkpt lat="47.5567" lon="7.17001">
        <ele>386</ele>
        <time>2018-03-22T12:04:29Z</time>
      </trkpt>
      <trkpt lat="47.55666" lon="7.1697">
        <ele>388</ele>
        <time>2018-03-22T12:04:41Z</time>
      </trkpt>
      <trkpt lat="47.55662" lon="7.16939">
        <ele>387</ele>
        <time>2018-03-22T12:04:53Z</time>
      </trkpt>
      <trkpt lat="47.55658" lon="7.16908">
        <ele>386</ele>
        <time>2018-03-22T12:05:05Z</time>
      </trkpt>
      <trkpt lat="47.55655" lon="7.16882">
        <ele>387</ele>
        <time>2018-03-22T12:05:15Z</time>
      </trkpt>
      <trkpt lat="47.55652" lon="7.16855">
        <ele>386</ele>
        <time>2018-03-22T12:05:25Z</time>
      </trkpt>
      <trkpt lat="47.55648" lon="7.16826">
        <ele>385</ele>
        <time>2018-03-22T12:05:37Z</time>
      </trkpt>
      <trkpt lat="47.55643" lon="7.16795">
        <ele>385</ele>
        <time>2018-03-22T12:05:49Z</time>
      </trkpt>
      <trkpt lat="47.55638" lon="7.16768">
        <ele>384</ele>
        <time>2018-03-22T12:05:59Z</time>
      </trkpt>
      <trkpt lat="47.55633" lon="7.16737">
        <ele>382</ele>
        <time>2018-03-22T12:06:11Z</time>
      </trkpt>
      <trkpt lat="47.55629" lon="7.16707">
        <ele>381</ele>
        <time>2018-03-22T12:06:23Z</time>
      </trkpt>
      <trkpt lat="47.55624" lon="7.16676">
        <ele>381</ele>
        <time>2018-03-22T12:06:35Z</time>
      </trkpt>
      <trkpt lat="47.5562" lon="7.16649">
        <ele>378</ele>
        <time>2018-03-22T12:06:45Z</time>
      </trkpt>
      <trkpt lat="47.55616" lon="7.16623">
        <ele>378</ele>
        <time>2018-03-22T12:06:55Z</time>
      </trkpt>
      <trkpt lat="47.55609" lon="7.16593">
        <ele>377</ele>
        <time>2018-03-22T12:07:07Z</time>
      </trkpt>
      <trkpt lat="47.55602" lon="7.16568">
        <ele>374</ele>
        <time>2018-03-22T12:07:17Z</time>
      </trkpt>
      <trkpt lat="47.55594" lon="7.16538">
        <ele>373</ele>
        <time>2018-03-22T12:07:29Z</time>
      </trkpt>
      <trkpt lat="47.55587" lon="7.16509">
        <ele>372</ele>
        <time>2018-03-22T12:07:41Z</time>
      </trkpt>
      <trkpt lat="47.55579" lon="7.16483">
        <ele>370</ele>
        <time>2018-03-22T12:07:53Z</time>
      </trkpt>
      <trkpt lat="47.55584" lon="7.16452">
        <ele>369</ele>
        <time>2018-03-22T12:08:05Z</time>
      </trkpt>
      <trkpt lat="47.55593" lon="7.16429">
        <ele>368</ele>
        <time>2018-03-22T12:08:15Z</time>
      </trkpt>
      <trkpt lat="47.556" lon="7.16399">
        <ele>366</ele>
        <time>2018-03-22T12:08:25Z</time>
      </trkpt>
      <trkpt lat="47.55602" lon="7.16371">
        <ele>365</ele>
        <time>2018-03-22T12:08:35Z</time>
      </trkpt>
      <trkpt lat="47.55596" lon="7.16342">
        <ele>365</ele>
        <time>2018-03-22T12:08:47Z</time>
      </trkpt>
      <trkpt lat="47.55585" lon="7.1632">
        <ele>363</ele>
        <time>2018-03-22T12:08:59Z</time>
      </trkpt>
      <trkpt lat="47.55569" lon="7.16307">
        <ele>363</ele>
        <time>2018-03-22T12:09:09Z</time>
      </trkpt>
      <trkpt lat="47.55552" lon="7.16293">
        <ele>362</ele>
        <time>2018-03-22T12:09:19Z</time>
      </trkpt>
      <trkpt lat="47.55535" lon="7.1628">
        <ele>362</ele>
        <time>2018-03-22T12:09:29Z</time>
      </trkpt>
      <trkpt lat="47.55518" lon="7.16271">
        <ele>361</ele>
        <time>2018-03-22T12:09:39Z</time>
      </trkpt>
      <trkpt lat="47.55501" lon="7.16252">
        <ele>360</ele>
        <time>2018-03-22T12:09:51Z</time>
      </trkpt>
      <trkpt lat="47.55488" lon="7.1623">
        <ele>358</ele>
        <time>2018-03-22T12:10:03Z</time>
      </trkpt>
      <trkpt lat="47.55476" lon="7.16207">
        <ele>357</ele>
        <time>2018-03-22T12:10:13Z</time>
      </trkpt>
      <trkpt lat="47.55465" lon="7.16186">
        <ele>356</ele>
        <time>2018-03-22T12:10:23Z</time>
      </trkpt>
      <trkpt lat="47.55473" lon="7.16214">
        <ele>357</ele>
        <time>2018-03-22T12:10:51Z</time>
      </trkpt>
      <trkpt lat="47.55484" lon="7.16239">
        <ele>358</ele>
        <time>2018-03-22T12:11:03Z</time>
      </trkpt>
      <trkpt lat="47.55489" lon="7.16266">
        <ele>361</ele>
        <time>2018-03-22T12:11:15Z</time>
      </trkpt>
      <trkpt lat="47.5547" lon="7.16275">
        <ele>361</ele>
        <time>2018-03-22T12:11:27Z</time>
      </trkpt>
      <trkpt lat="47.5545" lon="7.16279">
        <ele>361</ele>
        <time>2018-03-22T12:11:39Z</time>
      </trkpt>
      <trkpt lat="47.55428" lon="7.16285">
        <ele>360</ele>
        <time>2018-03-22T12:11:51Z</time>
      </trkpt>
      <trkpt lat="47.55408" lon="7.1629">
        <ele>360</ele>
        <time>2018-03-22T12:12:03Z</time>
      </trkpt>
      <trkpt lat="47.55389" lon="7.16293">
        <ele>360</ele>
        <time>2018-03-22T12:12:13Z</time>
      </trkpt>
      <trkpt lat="47.5537" lon="7.16296">
        <ele>360</ele>
        <time>2018-03-22T12:12:23Z</time>
      </trkpt>
      <trkpt lat="47.55351" lon="7.16299">
        <ele>360</ele>
        <time>2018-03-22T12:12:33Z</time>
      </trkpt>
      <trkpt lat="47.55331" lon="7.16305">
        <ele>360</ele>
        <time>2018-03-22T12:12:45Z</time>
      </trkpt>
      <trkpt lat="47.5531" lon="7.1631">
        <ele>359</ele>
        <time>2018-03-22T12:12:57Z</time>
      </trkpt>
      <trkpt lat="47.5529" lon="7.1632">
        <ele>359</ele>
        <time>2018-03-22T12:13:09Z</time>
      </trkpt>
      <trkpt lat="47.55275" lon="7.16343">
        <ele>362</ele>
        <time>2018-03-22T12:13:21Z</time>
      </trkpt>
      <trkpt lat="47.55271" lon="7.16369">
        <ele>363</ele>
        <time>2018-03-22T12:13:31Z</time>
      </trkpt>
      <trkpt lat="47.55264" lon="7.16394">
        <ele>364</ele>
        <time>2018-03-22T12:13:41Z</time>
      </trkpt>
      <trkpt lat="47.55248" lon="7.16413">
        <ele>366</ele>
        <time>2018-03-22T12:13:53Z</time>
      </trkpt>
      <trkpt lat="47.55229" lon="7.16419">
        <ele>367</ele>
        <time>2018-03-22T12:14:03Z</time>
      </trkpt>
      <trkpt lat="47.55211" lon="7.16422">
        <ele>368</ele>
        <time>2018-03-22T12:14:15Z</time>
      </trkpt>
      <trkpt lat="47.55189" lon="7.16427">
        <ele>368</ele>
        <time>2018-03-22T12:14:27Z</time>
      </trkpt>
      <trkpt lat="47.55169" lon="7.1643">
        <ele>368</ele>
        <time>2018-03-22T12:14:38Z</time>
      </trkpt>
      <trkpt lat="47.55149" lon="7.1643">
        <ele>369</ele>
        <time>2018-03-22T12:14:50Z</time>
      </trkpt>
      <trkpt lat="47.55128" lon="7.16432">
        <ele>369</ele>
        <time>2018-03-22T12:15:00Z</time>
      </trkpt>
      <trkpt lat="47.55108" lon="7.16437">
        <ele>369</ele>
        <time>2018-03-22T12:15:12Z</time>
      </trkpt>
      <trkpt lat="47.5509" lon="7.16442">
        <ele>369</ele>
        <time>2018-03-22T12:15:22Z</time>
      </trkpt>
      <trkpt lat="47.5507" lon="7.16447">
        <ele>369</ele>
        <time>2018-03-22T12:15:32Z</time>
      </trkpt>
      <trkpt lat="47.55051" lon="7.16449">
        <ele>369</ele>
        <time>2018-03-22T12:15:42Z</time>
      </trkpt>
      <trkpt lat="47.55033" lon="7.16451">
        <ele>369</ele>
        <time>2018-03-22T12:15:52Z</time>
      </trkpt>
      <trkpt lat="47.55013" lon="7.16455">
        <ele>369</ele>
        <time>2018-03-22T12:16:04Z</time>
      </trkpt>
      <trkpt lat="47.54994" lon="7.16462">
        <ele>370</ele>
        <time>2018-03-22T12:16:14Z</time>
      </trkpt>
      <trkpt lat="47.54974" lon="7.1647">
        <ele>370</ele>
        <time>2018-03-22T12:16:24Z</time>
      </trkpt>
      <trkpt lat="47.54954" lon="7.16478">
        <ele>371</ele>
        <time>2018-03-22T12:16:36Z</time>
      </trkpt>
      <trkpt lat="47.54936" lon="7.16487">
        <ele>371</ele>
        <time>2018-03-22T12:16:46Z</time>
      </trkpt>
      <trkpt lat="47.54916" lon="7.16499">
        <ele>373</ele>
        <time>2018-03-22T12:16:58Z</time>
      </trkpt>
      <trkpt lat="47.54897" lon="7.16508">
        <ele>373</ele>
        <time>2018-03-22T12:17:08Z</time>
      </trkpt>
      <trkpt lat="47.5488" lon="7.16521">
        <ele>373</ele>
        <time>2018-03-22T12:17:18Z</time>
      </trkpt>
      <trkpt lat="47.54864" lon="7.16533">
        <ele>373</ele>
        <time>2018-03-22T12:17:28Z</time>
      </trkpt>
      <trkpt lat="47.54847" lon="7.16544">
        <ele>374</ele>
        <time>2018-03-22T12:17:38Z</time>
      </trkpt>
      <trkpt lat="47.54831" lon="7.16558">
        <ele>374</ele>
        <time>2018-03-22T12:17:48Z</time>
      </trkpt>
      <trkpt lat="47.54816" lon="7.16574">
        <ele>375</ele>
        <time>2018-03-22T12:18:00Z</time>
      </trkpt>
      <trkpt lat="47.54799" lon="7.16588">
        <ele>379</ele>
        <time>2018-03-22T12:18:10Z</time>
      </trkpt>
      <trkpt lat="47.54783" lon="7.16608">
        <ele>379</ele>
        <time>2018-03-22T12:18:22Z</time>
      </trkpt>
      <trkpt lat="47.54767" lon="7.16627">
        <ele>380</ele>
        <time>2018-03-22T12:18:32Z</time>
      </trkpt>
      <trkpt lat="47.54751" lon="7.16648">
        <ele>381</ele>
        <time>2018-03-22T12:18:44Z</time>
      </trkpt>
      <trkpt lat="47.54736" lon="7.16667">
        <ele>381</ele>
        <time>2018-03-22T12:18:54Z</time>
      </trkpt>
      <trkpt lat="47.54722" lon="7.16685">
        <ele>379</ele>
        <time>2018-03-22T12:19:04Z</time>
      </trkpt>
      <trkpt lat="47.54706" lon="7.16703">
        <ele>379</ele>
        <time>2018-03-22T12:19:14Z</time>
      </trkpt>
      <trkpt lat="47.54691" lon="7.16723">
        <ele>378</ele>
        <time>2018-03-22T12:19:26Z</time>
      </trkpt>
      <trkpt lat="47.54676" lon="7.16744">
        <ele>378</ele>
        <time>2018-03-22T12:19:37Z</time>
      </trkpt>
      <trkpt lat="47.54661" lon="7.16765">
        <ele>376</ele>
        <time>2018-03-22T12:19:47Z</time>
      </trkpt>
      <trkpt lat="47.54646" lon="7.16785">
        <ele>376</ele>
        <time>2018-03-22T12:19:59Z</time>
      </trkpt>
      <trkpt lat="47.54632" lon="7.16805">
        <ele>376</ele>
        <time>2018-03-22T12:20:11Z</time>
      </trkpt>
      <trkpt lat="47.54618" lon="7.16826">
        <ele>376</ele>
        <time>2018-03-22T12:20:21Z</time>
      </trkpt>
      <trkpt lat="47.54602" lon="7.16846">
        <ele>378</ele>
        <time>2018-03-22T12:20:33Z</time>
      </trkpt>
      <trkpt lat="47.54585" lon="7.16865">
        <ele>378</ele>
        <time>2018-03-22T12:20:43Z</time>
      </trkpt>
      <trkpt lat="47.54569" lon="7.16884">
        <ele>377</ele>
        <time>2018-03-22T12:20:55Z</time>
      </trkpt>
      <trkpt lat="47.54554" lon="7.16906">
        <ele>377</ele>
        <time>2018-03-22T12:21:07Z</time>
      </trkpt>
      <trkpt lat="47.54539" lon="7.16923">
        <ele>380</ele>
        <time>2018-03-22T12:21:17Z</time>
      </trkpt>
      <trkpt lat="47.54525" lon="7.16942">
        <ele>380</ele>
        <time>2018-03-22T12:21:27Z</time>
      </trkpt>
      <trkpt lat="47.54512" lon="7.16962">
        <ele>380</ele>
        <time>2018-03-22T12:21:37Z</time>
      </trkpt>
      <trkpt lat="47.54496" lon="7.16981">
        <ele>377</ele>
        <time>2018-03-22T12:21:49Z</time>
      </trkpt>
      <trkpt lat="47.54483" lon="7.17001">
        <ele>379</ele>
        <time>2018-03-22T12:21:59Z</time>
      </trkpt>
      <trkpt lat="47.54471" lon="7.1702">
        <ele>378</ele>
        <time>2018-03-22T12:22:09Z</time>
      </trkpt>
      <trkpt lat="47.54457" lon="7.17039">
        <ele>377</ele>
        <time>2018-03-22T12:22:19Z</time>
      </trkpt>
      <trkpt lat="47.54444" lon="7.1706">
        <ele>377</ele>
        <time>2018-03-22T12:22:29Z</time>
      </trkpt>
      <trkpt lat="47.54431" lon="7.17084">
        <ele>378</ele>
        <time>2018-03-22T12:22:41Z</time>
      </trkpt>
      <trkpt lat="47.54419" lon="7.17105">
        <ele>379</ele>
        <time>2018-03-22T12:22:51Z</time>
      </trkpt>
      <trkpt lat="47.54405" lon="7.17127">
        <ele>376</ele>
        <time>2018-03-22T12:23:02Z</time>
      </trkpt>
      <trkpt lat="47.54392" lon="7.17147">
        <ele>376</ele>
        <time>2018-03-22T12:23:12Z</time>
      </trkpt>
      <trkpt lat="47.5438" lon="7.1717">
        <ele>380</ele>
        <time>2018-03-22T12:23:22Z</time>
      </trkpt>
      <trkpt lat="47.54367" lon="7.17192">
        <ele>380</ele>
        <time>2018-03-22T12:23:32Z</time>
      </trkpt>
      <trkpt lat="47.54353" lon="7.17211">
        <ele>381</ele>
        <time>2018-03-22T12:23:42Z</time>
      </trkpt>
      <trkpt lat="47.54338" lon="7.17235">
        <ele>381</ele>
        <time>2018-03-22T12:23:54Z</time>
      </trkpt>
      <trkpt lat="47.54325" lon="7.17256">
        <ele>381</ele>
        <time>2018-03-22T12:24:04Z</time>
      </trkpt>
      <trkpt lat="47.54312" lon="7.1728">
        <ele>381</ele>
        <time>2018-03-22T12:24:16Z</time>
      </trkpt>
      <trkpt lat="47.54299" lon="7.17302">
        <ele>382</ele>
        <time>2018-03-22T12:24:26Z</time>
      </trkpt>
      <trkpt lat="47.54286" lon="7.17322">
        <ele>381</ele>
        <time>2018-03-22T12:24:36Z</time>
      </trkpt>
      <trkpt lat="47.54273" lon="7.17343">
        <ele>385</ele>
        <time>2018-03-22T12:24:46Z</time>
      </trkpt>
      <trkpt lat="47.54263" lon="7.17366">
        <ele>386</ele>
        <time>2018-03-22T12:24:56Z</time>
      </trkpt>
      <trkpt lat="47.5425" lon="7.17388">
        <ele>379</ele>
        <time>2018-03-22T12:25:06Z</time>
      </trkpt>
      <trkpt lat="47.54237" lon="7.17407">
        <ele>380</ele>
        <time>2018-03-22T12:25:16Z</time>
      </trkpt>
      <trkpt lat="47.54223" lon="7.17432">
        <ele>382</ele>
        <time>2018-03-22T12:25:26Z</time>
      </trkpt>
      <trkpt lat="47.54208" lon="7.17454">
        <ele>381</ele>
        <time>2018-03-22T12:25:38Z</time>
      </trkpt>
      <trkpt lat="47.54198" lon="7.17477">
        <ele>381</ele>
        <time>2018-03-22T12:25:48Z</time>
      </trkpt>
      <trkpt lat="47.54186" lon="7.17499">
        <ele>379</ele>
        <time>2018-03-22T12:25:58Z</time>
      </trkpt>
      <trkpt lat="47.54172" lon="7.17519">
        <ele>381</ele>
        <time>2018-03-22T12:26:08Z</time>
      </trkpt>
      <trkpt lat="47.54157" lon="7.17539">
        <ele>376</ele>
        <time>2018-03-22T12:26:18Z</time>
      </trkpt>
      <trkpt lat="47.54145" lon="7.17562">
        <ele>376</ele>
        <time>2018-03-22T12:26:28Z</time>
      </trkpt>
      <trkpt lat="47.54133" lon="7.17583">
        <ele>376</ele>
        <time>2018-03-22T12:26:38Z</time>
      </trkpt>
      <trkpt lat="47.54118" lon="7.17604">
        <ele>378</ele>
        <time>2018-03-22T12:26:48Z</time>
      </trkpt>
      <trkpt lat="47.5411" lon="7.17631">
        <ele>379</ele>
        <time>2018-03-22T12:26:58Z</time>
      </trkpt>
      <trkpt lat="47.54099" lon="7.17657">
        <ele>378</ele>
        <time>2018-03-22T12:27:08Z</time>
      </trkpt>
      <trkpt lat="47.54085" lon="7.17676">
        <ele>379</ele>
        <time>2018-03-22T12:27:18Z</time>
      </trkpt>
      <trkpt lat="47.54065" lon="7.17669">
        <ele>377</ele>
        <time>2018-03-22T12:27:30Z</time>
      </trkpt>
      <trkpt lat="47.54047" lon="7.1766">
        <ele>374</ele>
        <time>2018-03-22T12:27:40Z</time>
      </trkpt>
      <trkpt lat="47.54031" lon="7.17638">
        <ele>374</ele>
        <time>2018-03-22T12:27:52Z</time>
      </trkpt>
      <trkpt lat="47.54017" lon="7.1762">
        <ele>373</ele>
        <time>2018-03-22T12:28:02Z</time>
      </trkpt>
      <trkpt lat="47.54001" lon="7.17598">
        <ele>373</ele>
        <time>2018-03-22T12:28:14Z</time>
      </trkpt>
      <trkpt lat="47.53988" lon="7.17577">
        <ele>372</ele>
        <time>2018-03-22T12:28:24Z</time>
      </trkpt>
      <trkpt lat="47.53975" lon="7.17556">
        <ele>372</ele>
        <time>2018-03-22T12:28:34Z</time>
      </trkpt>
      <trkpt lat="47.53961" lon="7.17534">
        <ele>371</ele>
        <time>2018-03-22T12:28:44Z</time>
      </trkpt>
      <trkpt lat="47.53946" lon="7.17513">
        <ele>372</ele>
        <time>2018-03-22T12:28:56Z</time>
      </trkpt>
      <trkpt lat="47.53935" lon="7.1749">
        <ele>371</ele>
        <time>2018-03-22T12:29:06Z</time>
      </trkpt>
      <trkpt lat="47.53925" lon="7.17466">
        <ele>371</ele>
        <time>2018-03-22T12:29:16Z</time>
      </trkpt>
      <trkpt lat="47.53914" lon="7.17442">
        <ele>373</ele>
        <time>2018-03-22T12:29:26Z</time>
      </trkpt>
      <trkpt lat="47.53903" lon="7.17419">
        <ele>372</ele>
        <time>2018-03-22T12:29:36Z</time>
      </trkpt>
      <trkpt lat="47.53888" lon="7.17402">
        <ele>373</ele>
        <time>2018-03-22T12:29:46Z</time>
      </trkpt>
      <trkpt lat="47.53871" lon="7.17386">
        <ele>374</ele>
        <time>2018-03-22T12:29:58Z</time>
      </trkpt>
      <trkpt lat="47.53879" lon="7.17361">
        <ele>373</ele>
        <time>2018-03-22T12:30:08Z</time>
      </trkpt>
      <trkpt lat="47.53888" lon="7.17335">
        <ele>373</ele>
        <time>2018-03-22T12:30:18Z</time>
      </trkpt>
      <trkpt lat="47.53899" lon="7.17309">
        <ele>373</ele>
        <time>2018-03-22T12:30:28Z</time>
      </trkpt>
      <trkpt lat="47.53911" lon="7.17287">
        <ele>374</ele>
        <time>2018-03-22T12:30:38Z</time>
      </trkpt>
      <trkpt lat="47.53922" lon="7.17265">
        <ele>372</ele>
        <time>2018-03-22T12:30:48Z</time>
      </trkpt>
      <trkpt lat="47.53933" lon="7.17243">
        <ele>373</ele>
        <time>2018-03-22T12:30:58Z</time>
      </trkpt>
      <trkpt lat="47.5395" lon="7.1723">
        <ele>373</ele>
        <time>2018-03-22T12:31:10Z</time>
      </trkpt>
      <trkpt lat="47.53968" lon="7.17236">
        <ele>373</ele>
        <time>2018-03-22T12:31:20Z</time>
      </trkpt>
      <trkpt lat="47.53988" lon="7.17245">
        <ele>371</ele>
        <time>2018-03-22T12:31:30Z</time>
      </trkpt>
      <trkpt lat="47.54007" lon="7.17242">
        <ele>370</ele>
        <time>2018-03-22T12:31:42Z</time>
      </trkpt>
      <trkpt lat="47.54022" lon="7.17225">
        <ele>370</ele>
        <time>2018-03-22T12:31:52Z</time>
      </trkpt>
      <trkpt lat="47.54038" lon="7.17205">
        <ele>370</ele>
        <time>2018-03-22T12:32:02Z</time>
      </trkpt>
      <trkpt lat="47.54051" lon="7.17181">
        <ele>370</ele>
        <time>2018-03-22T12:32:14Z</time>
      </trkpt>
      <trkpt lat="47.54061" lon="7.17154">
        <ele>369</ele>
        <time>2018-03-22T12:32:28Z</time>
      </trkpt>
      <trkpt lat="47.54071" lon="7.17127">
        <ele>369</ele>
        <time>2018-03-22T12:32:40Z</time>
      </trkpt>
      <trkpt lat="47.54082" lon="7.17103">
        <ele>368</ele>
        <time>2018-03-22T12:32:51Z</time>
      </trkpt>
      <trkpt lat="47.54097" lon="7.17082">
        <ele>367</ele>
        <time>2018-03-22T12:33:03Z</time>
      </trkpt>
      <trkpt lat="47.54113" lon="7.17064">
        <ele>367</ele>
        <time>2018-03-22T12:33:17Z</time>
      </trkpt>
      <trkpt lat="47.54134" lon="7.1706">
        <ele>367</ele>
        <time>2018-03-22T12:33:29Z</time>
      </trkpt>
    </trkseg>
  </trk>
</gpx>